sensor_id;sensor_type;location;lat;lon;timestamp;P1;durP1;ratioP1;P2;durP2;ratioP2
11034;SDS011;5571;48.110;-1.706;2023-06-26T00:00:03;6.95;;;2.10;;
11034;SDS011;5571;48.110;-1.706;2023-06-26T00:02:30;9.00;;;5.72;;
11034;SDS011;5571;48.110;-1.706;2023-06-26T00:04:58;8.52;;;3.40;;
11034;SDS011;5571;48.110;-1.706;2023-06-26T00:07:23;8.35;;;2.30;;
11034;SDS011;5571;48.110;-1.706;2023-06-26T00:09:49;8.07;;;2.17;;
11034;SDS011;5571;48.110;-1.706;2023-06-26T00:12:14;4.80;;;1.88;;
11034;SDS011;5571;48.110;-1.706;2023-06-26T00:14:40;10.10;;;2.58;;
11034;SDS011;5571;48.110;-1.706;2023-06-26T00:17:07;4.72;;;2.15;;
11034;SDS011;5571;48.110;-1.706;2023-06-26T00:19:33;5.10;;;2.10;;
11034;SDS011;5571;48.110;-1.706;2023-06-26T00:21:58;8.75;;;2.45;;
11034;SDS011;5571;48.110;-1.706;2023-06-26T00:24:24;6.97;;;2.03;;
11034;SDS011;5571;48.110;-1.706;2023-06-26T00:26:49;6.40;;;2.05;;
11034;SDS011;5571;48.110;-1.706;2023-06-26T00:29:15;5.60;;;2.10;;
11034;SDS011;5571;48.110;-1.706;2023-06-26T00:31:41;8.52;;;2.10;;
11034;SDS011;5571;48.110;-1.706;2023-06-26T00:34:07;7.50;;;2.13;;
11034;SDS011;5571;48.110;-1.706;2023-06-26T00:36:32;9.73;;;2.15;;
11034;SDS011;5571;48.110;-1.706;2023-06-26T00:38:58;6.60;;;2.25;;
11034;SDS011;5571;48.110;-1.706;2023-06-26T00:41:24;7.53;;;2.42;;
11034;SDS011;5571;48.110;-1.706;2023-06-26T00:43:50;10.65;;;2.25;;
11034;SDS011;5571;48.110;-1.706;2023-06-26T00:46:16;7.55;;;2.30;;
11034;SDS011;5571;48.110;-1.706;2023-06-26T00:48:43;11.13;;;2.25;;
11034;SDS011;5571;48.110;-1.706;2023-06-26T00:51:10;10.05;;;2.40;;
11034;SDS011;5571;48.110;-1.706;2023-06-26T00:53:36;8.07;;;2.22;;
11034;SDS011;5571;48.110;-1.706;2023-06-26T00:56:02;7.18;;;2.22;;
11034;SDS011;5571;48.110;-1.706;2023-06-26T00:58:28;10.18;;;2.38;;
11034;SDS011;5571;48.110;-1.706;2023-06-26T01:00:54;7.65;;;2.25;;
11034;SDS011;5571;48.110;-1.706;2023-06-26T01:03:20;9.20;;;2.20;;
11034;SDS011;5571;48.110;-1.706;2023-06-26T01:05:47;8.50;;;2.30;;
11034;SDS011;5571;48.110;-1.706;2023-06-26T01:08:15;9.38;;;2.08;;
11034;SDS011;5571;48.110;-1.706;2023-06-26T01:10:42;10.00;;;2.25;;
11034;SDS011;5571;48.110;-1.706;2023-06-26T01:13:08;10.48;;;2.90;;
11034;SDS011;5571;48.110;-1.706;2023-06-26T01:15:34;8.32;;;2.40;;
11034;SDS011;5571;48.110;-1.706;2023-06-26T01:18:00;8.30;;;2.40;;
11034;SDS011;5571;48.110;-1.706;2023-06-26T01:20:31;14.80;;;2.50;;
11034;SDS011;5571;48.110;-1.706;2023-06-26T01:25:37;10.98;;;2.40;;
11034;SDS011;5571;48.110;-1.706;2023-06-26T01:28:16;8.77;;;2.20;;
11034;SDS011;5571;48.110;-1.706;2023-06-26T01:30:44;7.68;;;2.45;;
11034;SDS011;5571;48.110;-1.706;2023-06-26T01:33:11;9.68;;;2.42;;
11034;SDS011;5571;48.110;-1.706;2023-06-26T01:35:38;8.38;;;2.35;;
11034;SDS011;5571;48.110;-1.706;2023-06-26T01:38:38;10.52;;;2.75;;
11034;SDS011;5571;48.110;-1.706;2023-06-26T01:40:56;12.93;;;2.55;;
11034;SDS011;5571;48.110;-1.706;2023-06-26T01:45:50;7.85;;;2.20;;
11034;SDS011;5571;48.110;-1.706;2023-06-26T01:48:19;10.90;;;2.17;;
11034;SDS011;5571;48.110;-1.706;2023-06-26T01:50:49;8.30;;;2.58;;
11034;SDS011;5571;48.110;-1.706;2023-06-26T01:53:18;9.85;;;2.50;;
11034;SDS011;5571;48.110;-1.706;2023-06-26T01:55:50;5.32;;;2.55;;
11034;SDS011;5571;48.110;-1.706;2023-06-26T01:58:22;7.47;;;2.53;;
11034;SDS011;5571;48.110;-1.706;2023-06-26T02:00:50;10.23;;;2.60;;
11034;SDS011;5571;48.110;-1.706;2023-06-26T02:03:16;11.85;;;2.45;;
11034;SDS011;5571;48.110;-1.706;2023-06-26T02:05:41;10.90;;;2.53;;
11034;SDS011;5571;48.110;-1.706;2023-06-26T02:08:08;9.07;;;2.22;;
11034;SDS011;5571;48.110;-1.706;2023-06-26T02:10:34;8.65;;;2.47;;
11034;SDS011;5571;48.110;-1.706;2023-06-26T02:13:00;12.07;;;2.55;;
11034;SDS011;5571;48.110;-1.706;2023-06-26T02:15:26;9.35;;;2.63;;
11034;SDS011;5571;48.110;-1.706;2023-06-26T02:17:51;10.70;;;2.70;;
11034;SDS011;5571;48.110;-1.706;2023-06-26T02:20:17;8.07;;;2.47;;
11034;SDS011;5571;48.110;-1.706;2023-06-26T02:22:43;7.22;;;2.55;;
11034;SDS011;5571;48.110;-1.706;2023-06-26T02:25:09;7.78;;;2.53;;
11034;SDS011;5571;48.110;-1.706;2023-06-26T02:27:38;6.03;;;2.42;;
11034;SDS011;5571;48.110;-1.706;2023-06-26T02:30:04;6.78;;;2.28;;
11034;SDS011;5571;48.110;-1.706;2023-06-26T02:32:30;10.00;;;2.75;;
11034;SDS011;5571;48.110;-1.706;2023-06-26T02:34:55;7.93;;;2.50;;
11034;SDS011;5571;48.110;-1.706;2023-06-26T02:37:21;8.10;;;2.60;;
11034;SDS011;5571;48.110;-1.706;2023-06-26T02:39:46;7.35;;;2.40;;
11034;SDS011;5571;48.110;-1.706;2023-06-26T02:42:12;7.35;;;2.25;;
11034;SDS011;5571;48.110;-1.706;2023-06-26T02:44:38;11.07;;;2.97;;
11034;SDS011;5571;48.110;-1.706;2023-06-26T02:47:04;9.15;;;2.40;;
11034;SDS011;5571;48.110;-1.706;2023-06-26T02:49:30;6.90;;;2.33;;
11034;SDS011;5571;48.110;-1.706;2023-06-26T02:51:55;11.20;;;2.60;;
11034;SDS011;5571;48.110;-1.706;2023-06-26T02:54:21;12.60;;;2.70;;
11034;SDS011;5571;48.110;-1.706;2023-06-26T02:56:46;10.75;;;2.83;;
11034;SDS011;5571;48.110;-1.706;2023-06-26T02:59:13;8.57;;;2.65;;
11034;SDS011;5571;48.110;-1.706;2023-06-26T03:01:38;7.82;;;3.33;;
11034;SDS011;5571;48.110;-1.706;2023-06-26T03:04:04;12.40;;;2.63;;
11034;SDS011;5571;48.110;-1.706;2023-06-26T03:06:30;12.82;;;2.67;;
11034;SDS011;5571;48.110;-1.706;2023-06-26T03:08:55;8.02;;;2.33;;
11034;SDS011;5571;48.110;-1.706;2023-06-26T03:11:21;9.70;;;2.40;;
11034;SDS011;5571;48.110;-1.706;2023-06-26T03:13:46;12.57;;;2.72;;
11034;SDS011;5571;48.110;-1.706;2023-06-26T03:16:12;9.20;;;2.53;;
11034;SDS011;5571;48.110;-1.706;2023-06-26T03:18:38;10.45;;;2.60;;
11034;SDS011;5571;48.110;-1.706;2023-06-26T03:21:03;8.43;;;2.70;;
11034;SDS011;5571;48.110;-1.706;2023-06-26T03:23:30;12.05;;;2.83;;
11034;SDS011;5571;48.110;-1.706;2023-06-26T03:25:56;9.90;;;2.90;;
11034;SDS011;5571;48.110;-1.706;2023-06-26T03:28:21;10.73;;;2.90;;
11034;SDS011;5571;48.110;-1.706;2023-06-26T03:30:47;17.52;;;2.92;;
11034;SDS011;5571;48.110;-1.706;2023-06-26T03:33:12;8.25;;;2.85;;
11034;SDS011;5571;48.110;-1.706;2023-06-26T03:35:38;10.80;;;2.78;;
11034;SDS011;5571;48.110;-1.706;2023-06-26T03:38:04;9.00;;;2.67;;
11034;SDS011;5571;48.110;-1.706;2023-06-26T03:40:30;10.10;;;2.65;;
11034;SDS011;5571;48.110;-1.706;2023-06-26T03:42:56;11.35;;;3.15;;
11034;SDS011;5571;48.110;-1.706;2023-06-26T03:45:21;9.40;;;2.67;;
11034;SDS011;5571;48.110;-1.706;2023-06-26T03:47:47;10.68;;;2.72;;
11034;SDS011;5571;48.110;-1.706;2023-06-26T03:50:17;11.30;;;2.67;;
11034;SDS011;5571;48.110;-1.706;2023-06-26T03:52:42;7.15;;;2.50;;
11034;SDS011;5571;48.110;-1.706;2023-06-26T03:55:08;9.23;;;2.83;;
11034;SDS011;5571;48.110;-1.706;2023-06-26T03:57:34;8.38;;;2.83;;
11034;SDS011;5571;48.110;-1.706;2023-06-26T03:59:59;9.82;;;2.40;;
11034;SDS011;5571;48.110;-1.706;2023-06-26T04:02:25;8.13;;;2.80;;
11034;SDS011;5571;48.110;-1.706;2023-06-26T04:04:51;13.48;;;3.35;;
11034;SDS011;5571;48.110;-1.706;2023-06-26T04:07:17;10.38;;;3.00;;
11034;SDS011;5571;48.110;-1.706;2023-06-26T04:09:43;9.45;;;2.50;;
11034;SDS011;5571;48.110;-1.706;2023-06-26T04:12:09;12.88;;;2.85;;
11034;SDS011;5571;48.110;-1.706;2023-06-26T04:14:34;8.10;;;2.83;;
11034;SDS011;5571;48.110;-1.706;2023-06-26T04:17:00;11.75;;;2.80;;
11034;SDS011;5571;48.110;-1.706;2023-06-26T04:19:28;6.50;;;2.90;;
11034;SDS011;5571;48.110;-1.706;2023-06-26T04:21:54;9.05;;;2.88;;
11034;SDS011;5571;48.110;-1.706;2023-06-26T04:24:20;9.63;;;2.35;;
11034;SDS011;5571;48.110;-1.706;2023-06-26T04:26:45;13.38;;;2.92;;
11034;SDS011;5571;48.110;-1.706;2023-06-26T04:29:11;10.57;;;3.10;;
11034;SDS011;5571;48.110;-1.706;2023-06-26T04:31:37;7.72;;;2.78;;
11034;SDS011;5571;48.110;-1.706;2023-06-26T04:34:04;9.15;;;2.65;;
11034;SDS011;5571;48.110;-1.706;2023-06-26T04:36:30;7.57;;;2.65;;
11034;SDS011;5571;48.110;-1.706;2023-06-26T04:38:56;12.75;;;3.38;;
11034;SDS011;5571;48.110;-1.706;2023-06-26T04:41:23;11.02;;;2.70;;
11034;SDS011;5571;48.110;-1.706;2023-06-26T04:43:49;11.95;;;3.30;;
11034;SDS011;5571;48.110;-1.706;2023-06-26T04:46:15;8.95;;;2.60;;
11034;SDS011;5571;48.110;-1.706;2023-06-26T04:48:40;8.32;;;2.95;;
11034;SDS011;5571;48.110;-1.706;2023-06-26T04:51:06;12.30;;;3.28;;
11034;SDS011;5571;48.110;-1.706;2023-06-26T04:53:32;8.70;;;3.00;;
11034;SDS011;5571;48.110;-1.706;2023-06-26T04:55:57;13.90;;;3.38;;
11034;SDS011;5571;48.110;-1.706;2023-06-26T04:58:23;9.73;;;2.80;;
11034;SDS011;5571;48.110;-1.706;2023-06-26T05:00:48;8.75;;;2.90;;
11034;SDS011;5571;48.110;-1.706;2023-06-26T05:03:15;11.38;;;2.83;;
11034;SDS011;5571;48.110;-1.706;2023-06-26T05:05:42;10.50;;;3.10;;
11034;SDS011;5571;48.110;-1.706;2023-06-26T05:08:17;8.77;;;2.70;;
11034;SDS011;5571;48.110;-1.706;2023-06-26T05:10:46;10.98;;;3.10;;
11034;SDS011;5571;48.110;-1.706;2023-06-26T05:13:12;10.60;;;3.10;;
11034;SDS011;5571;48.110;-1.706;2023-06-26T05:15:40;12.68;;;3.10;;
11034;SDS011;5571;48.110;-1.706;2023-06-26T05:18:07;10.57;;;3.67;;
11034;SDS011;5571;48.110;-1.706;2023-06-26T05:20:33;9.40;;;3.00;;
11034;SDS011;5571;48.110;-1.706;2023-06-26T05:23:01;16.23;;;3.40;;
11034;SDS011;5571;48.110;-1.706;2023-06-26T05:25:28;14.20;;;3.15;;
11034;SDS011;5571;48.110;-1.706;2023-06-26T05:27:55;7.43;;;2.90;;
11034;SDS011;5571;48.110;-1.706;2023-06-26T05:30:21;11.02;;;3.58;;
11034;SDS011;5571;48.110;-1.706;2023-06-26T05:32:50;9.95;;;3.40;;
11034;SDS011;5571;48.110;-1.706;2023-06-26T05:35:16;11.25;;;3.33;;
11034;SDS011;5571;48.110;-1.706;2023-06-26T05:37:43;7.35;;;3.10;;
11034;SDS011;5571;48.110;-1.706;2023-06-26T05:40:09;10.48;;;2.92;;
11034;SDS011;5571;48.110;-1.706;2023-06-26T05:42:35;11.18;;;3.47;;
11034;SDS011;5571;48.110;-1.706;2023-06-26T05:45:01;12.30;;;3.20;;
11034;SDS011;5571;48.110;-1.706;2023-06-26T05:47:27;15.82;;;3.58;;
11034;SDS011;5571;48.110;-1.706;2023-06-26T05:49:52;12.80;;;3.25;;
11034;SDS011;5571;48.110;-1.706;2023-06-26T05:52:18;10.20;;;3.17;;
11034;SDS011;5571;48.110;-1.706;2023-06-26T05:54:44;11.13;;;3.25;;
11034;SDS011;5571;48.110;-1.706;2023-06-26T05:57:10;7.30;;;3.05;;
11034;SDS011;5571;48.110;-1.706;2023-06-26T05:59:39;14.13;;;3.58;;
11034;SDS011;5571;48.110;-1.706;2023-06-26T06:02:06;9.60;;;3.15;;
11034;SDS011;5571;48.110;-1.706;2023-06-26T06:04:32;10.18;;;3.55;;
11034;SDS011;5571;48.110;-1.706;2023-06-26T06:06:57;11.98;;;3.00;;
11034;SDS011;5571;48.110;-1.706;2023-06-26T06:09:23;9.13;;;2.92;;
11034;SDS011;5571;48.110;-1.706;2023-06-26T06:11:49;14.27;;;3.38;;
11034;SDS011;5571;48.110;-1.706;2023-06-26T06:14:16;8.43;;;3.42;;
11034;SDS011;5571;48.110;-1.706;2023-06-26T06:16:42;13.00;;;2.95;;
11034;SDS011;5571;48.110;-1.706;2023-06-26T06:19:07;10.15;;;2.95;;
11034;SDS011;5571;48.110;-1.706;2023-06-26T06:21:36;12.90;;;3.17;;
11034;SDS011;5571;48.110;-1.706;2023-06-26T06:24:01;9.45;;;3.20;;
11034;SDS011;5571;48.110;-1.706;2023-06-26T06:26:28;10.70;;;3.47;;
11034;SDS011;5571;48.110;-1.706;2023-06-26T06:28:53;11.43;;;3.05;;
11034;SDS011;5571;48.110;-1.706;2023-06-26T06:31:19;9.70;;;2.60;;
11034;SDS011;5571;48.110;-1.706;2023-06-26T06:33:45;8.70;;;3.17;;
11034;SDS011;5571;48.110;-1.706;2023-06-26T06:36:11;8.73;;;3.03;;
11034;SDS011;5571;48.110;-1.706;2023-06-26T06:38:36;7.13;;;2.95;;
11034;SDS011;5571;48.110;-1.706;2023-06-26T06:41:02;10.43;;;3.20;;
11034;SDS011;5571;48.110;-1.706;2023-06-26T06:43:27;9.43;;;2.95;;
11034;SDS011;5571;48.110;-1.706;2023-06-26T06:45:53;7.82;;;2.85;;
11034;SDS011;5571;48.110;-1.706;2023-06-26T06:48:19;11.25;;;3.60;;
11034;SDS011;5571;48.110;-1.706;2023-06-26T06:50:44;10.18;;;2.60;;
11034;SDS011;5571;48.110;-1.706;2023-06-26T06:53:10;10.32;;;3.10;;
11034;SDS011;5571;48.110;-1.706;2023-06-26T06:55:35;9.57;;;2.70;;
11034;SDS011;5571;48.110;-1.706;2023-06-26T06:58:01;10.07;;;2.83;;
11034;SDS011;5571;48.110;-1.706;2023-06-26T07:00:27;14.30;;;2.83;;
11034;SDS011;5571;48.110;-1.706;2023-06-26T07:02:53;14.05;;;2.88;;
11034;SDS011;5571;48.110;-1.706;2023-06-26T07:05:19;9.95;;;2.70;;
11034;SDS011;5571;48.110;-1.706;2023-06-26T07:07:44;11.88;;;2.63;;
11034;SDS011;5571;48.110;-1.706;2023-06-26T07:10:11;9.23;;;2.65;;
11034;SDS011;5571;48.110;-1.706;2023-06-26T07:12:38;9.07;;;2.67;;
11034;SDS011;5571;48.110;-1.706;2023-06-26T07:15:04;8.18;;;2.58;;
11034;SDS011;5571;48.110;-1.706;2023-06-26T07:17:31;10.93;;;2.92;;
11034;SDS011;5571;48.110;-1.706;2023-06-26T07:19:57;13.05;;;2.67;;
11034;SDS011;5571;48.110;-1.706;2023-06-26T07:22:24;13.70;;;2.75;;
11034;SDS011;5571;48.110;-1.706;2023-06-26T07:24:49;11.18;;;2.53;;
11034;SDS011;5571;48.110;-1.706;2023-06-26T07:27:15;13.05;;;3.38;;
11034;SDS011;5571;48.110;-1.706;2023-06-26T07:29:41;12.25;;;2.90;;
11034;SDS011;5571;48.110;-1.706;2023-06-26T07:32:07;9.60;;;2.70;;
11034;SDS011;5571;48.110;-1.706;2023-06-26T07:34:33;15.32;;;2.65;;
11034;SDS011;5571;48.110;-1.706;2023-06-26T07:36:59;10.68;;;2.80;;
11034;SDS011;5571;48.110;-1.706;2023-06-26T07:39:24;10.07;;;2.45;;
11034;SDS011;5571;48.110;-1.706;2023-06-26T07:41:50;9.35;;;2.85;;
11034;SDS011;5571;48.110;-1.706;2023-06-26T07:44:16;9.75;;;1.90;;
11034;SDS011;5571;48.110;-1.706;2023-06-26T07:46:41;9.38;;;2.78;;
11034;SDS011;5571;48.110;-1.706;2023-06-26T07:49:07;12.07;;;2.90;;
11034;SDS011;5571;48.110;-1.706;2023-06-26T07:51:32;8.50;;;2.70;;
11034;SDS011;5571;48.110;-1.706;2023-06-26T07:53:58;12.23;;;2.70;;
11034;SDS011;5571;48.110;-1.706;2023-06-26T07:56:24;10.02;;;2.80;;
11034;SDS011;5571;48.110;-1.706;2023-06-26T07:58:50;12.32;;;2.50;;
11034;SDS011;5571;48.110;-1.706;2023-06-26T08:01:15;8.50;;;2.55;;
11034;SDS011;5571;48.110;-1.706;2023-06-26T08:03:41;10.55;;;2.38;;
11034;SDS011;5571;48.110;-1.706;2023-06-26T08:06:07;7.20;;;2.08;;
11034;SDS011;5571;48.110;-1.706;2023-06-26T08:08:32;8.50;;;2.45;;
11034;SDS011;5571;48.110;-1.706;2023-06-26T08:10:58;13.27;;;2.90;;
11034;SDS011;5571;48.110;-1.706;2023-06-26T08:13:24;8.25;;;2.33;;
11034;SDS011;5571;48.110;-1.706;2023-06-26T08:15:50;6.43;;;1.80;;
11034;SDS011;5571;48.110;-1.706;2023-06-26T08:18:15;6.32;;;2.58;;
11034;SDS011;5571;48.110;-1.706;2023-06-26T08:20:41;6.95;;;2.40;;
11034;SDS011;5571;48.110;-1.706;2023-06-26T08:23:07;11.77;;;2.20;;
11034;SDS011;5571;48.110;-1.706;2023-06-26T08:25:33;8.07;;;2.38;;
11034;SDS011;5571;48.110;-1.706;2023-06-26T08:27:58;12.13;;;2.25;;
11034;SDS011;5571;48.110;-1.706;2023-06-26T08:30:24;5.90;;;2.15;;
11034;SDS011;5571;48.110;-1.706;2023-06-26T08:32:53;4.60;;;2.15;;
11034;SDS011;5571;48.110;-1.706;2023-06-26T08:35:21;5.53;;;2.17;;
11034;SDS011;5571;48.110;-1.706;2023-06-26T08:37:47;9.80;;;2.88;;
11034;SDS011;5571;48.110;-1.706;2023-06-26T08:40:14;6.68;;;2.38;;
11034;SDS011;5571;48.110;-1.706;2023-06-26T08:42:42;7.30;;;2.13;;
11034;SDS011;5571;48.110;-1.706;2023-06-26T08:45:08;12.10;;;2.50;;
11034;SDS011;5571;48.110;-1.706;2023-06-26T08:47:34;8.02;;;2.35;;
11034;SDS011;5571;48.110;-1.706;2023-06-26T08:52:33;9.68;;;2.40;;
11034;SDS011;5571;48.110;-1.706;2023-06-26T08:55:11;6.13;;;2.35;;
11034;SDS011;5571;48.110;-1.706;2023-06-26T08:57:40;5.88;;;1.95;;
11034;SDS011;5571;48.110;-1.706;2023-06-26T09:00:06;8.43;;;2.05;;
11034;SDS011;5571;48.110;-1.706;2023-06-26T09:02:33;6.80;;;2.20;;
11034;SDS011;5571;48.110;-1.706;2023-06-26T09:05:01;7.95;;;2.03;;
11034;SDS011;5571;48.110;-1.706;2023-06-26T09:07:28;7.15;;;1.98;;
11034;SDS011;5571;48.110;-1.706;2023-06-26T09:09:53;4.45;;;2.05;;
11034;SDS011;5571;48.110;-1.706;2023-06-26T09:12:20;10.95;;;2.28;;
11034;SDS011;5571;48.110;-1.706;2023-06-26T09:14:46;11.68;;;2.05;;
11034;SDS011;5571;48.110;-1.706;2023-06-26T09:17:12;9.10;;;2.22;;
11034;SDS011;5571;48.110;-1.706;2023-06-26T09:19:38;6.45;;;2.17;;
11034;SDS011;5571;48.110;-1.706;2023-06-26T09:22:04;9.13;;;2.05;;
11034;SDS011;5571;48.110;-1.706;2023-06-26T09:24:35;8.13;;;2.05;;
11034;SDS011;5571;48.110;-1.706;2023-06-26T09:27:01;9.52;;;2.20;;
11034;SDS011;5571;48.110;-1.706;2023-06-26T09:29:27;7.07;;;2.25;;
11034;SDS011;5571;48.110;-1.706;2023-06-26T09:31:55;4.72;;;1.90;;
11034;SDS011;5571;48.110;-1.706;2023-06-26T09:34:21;8.75;;;1.92;;
11034;SDS011;5571;48.110;-1.706;2023-06-26T09:36:47;7.22;;;2.20;;
11034;SDS011;5571;48.110;-1.706;2023-06-26T09:39:14;8.43;;;2.22;;
11034;SDS011;5571;48.110;-1.706;2023-06-26T09:41:43;6.32;;;2.10;;
11034;SDS011;5571;48.110;-1.706;2023-06-26T09:44:10;9.23;;;1.98;;
11034;SDS011;5571;48.110;-1.706;2023-06-26T09:46:38;4.65;;;2.22;;
11034;SDS011;5571;48.110;-1.706;2023-06-26T09:49:04;7.43;;;2.20;;
11034;SDS011;5571;48.110;-1.706;2023-06-26T09:51:36;5.55;;;2.10;;
11034;SDS011;5571;48.110;-1.706;2023-06-26T09:54:04;5.82;;;2.10;;
11034;SDS011;5571;48.110;-1.706;2023-06-26T09:56:30;6.32;;;1.92;;
11034;SDS011;5571;48.110;-1.706;2023-06-26T09:58:57;9.40;;;2.22;;
11034;SDS011;5571;48.110;-1.706;2023-06-26T10:01:24;9.52;;;2.00;;
11034;SDS011;5571;48.110;-1.706;2023-06-26T10:03:51;5.30;;;2.03;;
11034;SDS011;5571;48.110;-1.706;2023-06-26T10:06:21;4.95;;;1.70;;
11034;SDS011;5571;48.110;-1.706;2023-06-26T10:09:07;9.15;;;2.90;;
11034;SDS011;5571;48.110;-1.706;2023-06-26T10:11:40;6.22;;;2.55;;
11034;SDS011;5571;48.110;-1.706;2023-06-26T10:14:09;8.20;;;2.05;;
11034;SDS011;5571;48.110;-1.706;2023-06-26T10:16:37;5.10;;;1.98;;
11034;SDS011;5571;48.110;-1.706;2023-06-26T10:19:06;10.05;;;2.20;;
11034;SDS011;5571;48.110;-1.706;2023-06-26T10:21:35;6.18;;;2.00;;
11034;SDS011;5571;48.110;-1.706;2023-06-26T10:24:04;6.60;;;2.33;;
11034;SDS011;5571;48.110;-1.706;2023-06-26T10:26:31;7.50;;;2.25;;
11034;SDS011;5571;48.110;-1.706;2023-06-26T10:28:59;6.57;;;2.28;;
11034;SDS011;5571;48.110;-1.706;2023-06-26T10:31:26;7.15;;;2.08;;
11034;SDS011;5571;48.110;-1.706;2023-06-26T10:33:54;8.52;;;1.95;;
11034;SDS011;5571;48.110;-1.706;2023-06-26T10:36:20;5.90;;;1.90;;
11034;SDS011;5571;48.110;-1.706;2023-06-26T10:39:06;5.35;;;1.67;;
11034;SDS011;5571;48.110;-1.706;2023-06-26T10:41:39;4.18;;;2.00;;
11034;SDS011;5571;48.110;-1.706;2023-06-26T10:44:09;4.47;;;2.10;;
11034;SDS011;5571;48.110;-1.706;2023-06-26T10:46:48;6.65;;;2.17;;
11034;SDS011;5571;48.110;-1.706;2023-06-26T10:49:18;8.15;;;1.92;;
11034;SDS011;5571;48.110;-1.706;2023-06-26T10:51:51;6.55;;;1.98;;
11034;SDS011;5571;48.110;-1.706;2023-06-26T10:54:17;6.80;;;2.05;;
11034;SDS011;5571;48.110;-1.706;2023-06-26T10:59:14;7.18;;;2.33;;
11034;SDS011;5571;48.110;-1.706;2023-06-26T11:01:53;4.75;;;2.20;;
11034;SDS011;5571;48.110;-1.706;2023-06-26T11:04:40;5.85;;;2.05;;
11034;SDS011;5571;48.110;-1.706;2023-06-26T11:07:16;8.88;;;2.25;;
11034;SDS011;5571;48.110;-1.706;2023-06-26T11:15:03;4.50;;;1.90;;
11034;SDS011;5571;48.110;-1.706;2023-06-26T11:17:32;5.63;;;2.45;;
11034;SDS011;5571;48.110;-1.706;2023-06-26T11:20:00;7.43;;;2.33;;
11034;SDS011;5571;48.110;-1.706;2023-06-26T11:22:26;4.40;;;1.92;;
11034;SDS011;5571;48.110;-1.706;2023-06-26T11:24:52;7.53;;;2.17;;
11034;SDS011;5571;48.110;-1.706;2023-06-26T11:27:19;4.65;;;1.92;;
11034;SDS011;5571;48.110;-1.706;2023-06-26T11:29:48;9.35;;;2.30;;
11034;SDS011;5571;48.110;-1.706;2023-06-26T11:32:16;5.38;;;2.10;;
11034;SDS011;5571;48.110;-1.706;2023-06-26T11:34:42;5.75;;;2.08;;
11034;SDS011;5571;48.110;-1.706;2023-06-26T11:37:09;4.90;;;1.90;;
11034;SDS011;5571;48.110;-1.706;2023-06-26T11:39:34;6.93;;;2.00;;
11034;SDS011;5571;48.110;-1.706;2023-06-26T11:42:02;8.30;;;2.33;;
11034;SDS011;5571;48.110;-1.706;2023-06-26T11:44:29;5.30;;;2.22;;
11034;SDS011;5571;48.110;-1.706;2023-06-26T11:46:56;4.30;;;2.20;;
11034;SDS011;5571;48.110;-1.706;2023-06-26T11:49:22;3.50;;;1.80;;
11034;SDS011;5571;48.110;-1.706;2023-06-26T11:51:50;3.67;;;1.75;;
11034;SDS011;5571;48.110;-1.706;2023-06-26T11:54:22;6.20;;;2.35;;
11034;SDS011;5571;48.110;-1.706;2023-06-26T11:56:53;4.28;;;1.75;;
11034;SDS011;5571;48.110;-1.706;2023-06-26T11:59:21;4.88;;;1.88;;
11034;SDS011;5571;48.110;-1.706;2023-06-26T12:01:49;5.75;;;1.92;;
11034;SDS011;5571;48.110;-1.706;2023-06-26T12:04:15;4.88;;;2.05;;
11034;SDS011;5571;48.110;-1.706;2023-06-26T12:06:48;4.53;;;1.95;;
11034;SDS011;5571;48.110;-1.706;2023-06-26T12:09:15;5.57;;;1.92;;
11034;SDS011;5571;48.110;-1.706;2023-06-26T12:11:44;8.10;;;2.15;;
11034;SDS011;5571;48.110;-1.706;2023-06-26T12:14:13;5.30;;;2.10;;
11034;SDS011;5571;48.110;-1.706;2023-06-26T12:16:39;5.80;;;2.10;;
11034;SDS011;5571;48.110;-1.706;2023-06-26T12:19:06;5.20;;;2.05;;
11034;SDS011;5571;48.110;-1.706;2023-06-26T12:24:15;6.10;;;2.10;;
11034;SDS011;5571;48.110;-1.706;2023-06-26T12:26:42;5.57;;;2.30;;
11034;SDS011;5571;48.110;-1.706;2023-06-26T12:29:09;8.07;;;2.10;;
11034;SDS011;5571;48.110;-1.706;2023-06-26T12:31:46;8.23;;;2.20;;
11034;SDS011;5571;48.110;-1.706;2023-06-26T12:34:15;5.57;;;2.20;;
11034;SDS011;5571;48.110;-1.706;2023-06-26T12:36:50;2.42;;;1.70;;
11034;SDS011;5571;48.110;-1.706;2023-06-26T12:39:17;7.63;;;1.90;;
11034;SDS011;5571;48.110;-1.706;2023-06-26T12:44:25;3.75;;;1.90;;
11034;SDS011;5571;48.110;-1.706;2023-06-26T12:46:59;6.90;;;2.00;;
11034;SDS011;5571;48.110;-1.706;2023-06-26T12:49:34;3.75;;;1.75;;
11034;SDS011;5571;48.110;-1.706;2023-06-26T12:52:03;6.18;;;1.73;;
11034;SDS011;5571;48.110;-1.706;2023-06-26T12:54:30;6.32;;;1.92;;
11034;SDS011;5571;48.110;-1.706;2023-06-26T12:56:57;4.28;;;1.85;;
11034;SDS011;5571;48.110;-1.706;2023-06-26T12:59:22;4.95;;;1.80;;
11034;SDS011;5571;48.110;-1.706;2023-06-26T13:01:48;6.82;;;1.98;;
11034;SDS011;5571;48.110;-1.706;2023-06-26T13:04:14;5.88;;;1.88;;
11034;SDS011;5571;48.110;-1.706;2023-06-26T13:06:40;2.70;;;1.60;;
11034;SDS011;5571;48.110;-1.706;2023-06-26T13:09:06;5.70;;;1.88;;
11034;SDS011;5571;48.110;-1.706;2023-06-26T13:11:32;5.38;;;2.22;;
11034;SDS011;5571;48.110;-1.706;2023-06-26T13:13:58;5.25;;;2.08;;
11034;SDS011;5571;48.110;-1.706;2023-06-26T13:16:24;4.45;;;1.85;;
11034;SDS011;5571;48.110;-1.706;2023-06-26T13:18:50;7.65;;;2.28;;
11034;SDS011;5571;48.110;-1.706;2023-06-26T13:21:16;7.80;;;2.10;;
11034;SDS011;5571;48.110;-1.706;2023-06-26T13:23:42;7.30;;;2.00;;
11034;SDS011;5571;48.110;-1.706;2023-06-26T13:26:08;4.25;;;2.00;;
11034;SDS011;5571;48.110;-1.706;2023-06-26T13:28:35;4.63;;;2.05;;
11034;SDS011;5571;48.110;-1.706;2023-06-26T13:31:01;6.78;;;2.00;;
11034;SDS011;5571;48.110;-1.706;2023-06-26T13:33:27;5.60;;;2.00;;
11034;SDS011;5571;48.110;-1.706;2023-06-26T13:35:53;5.05;;;1.63;;
11034;SDS011;5571;48.110;-1.706;2023-06-26T13:38:22;6.57;;;2.30;;
11034;SDS011;5571;48.110;-1.706;2023-06-26T13:40:51;4.45;;;1.60;;
11034;SDS011;5571;48.110;-1.706;2023-06-26T13:43:17;5.18;;;2.10;;
11034;SDS011;5571;48.110;-1.706;2023-06-26T13:45:43;4.32;;;1.63;;
11034;SDS011;5571;48.110;-1.706;2023-06-26T13:48:09;4.28;;;2.00;;
11034;SDS011;5571;48.110;-1.706;2023-06-26T13:50:35;5.13;;;1.75;;
11034;SDS011;5571;48.110;-1.706;2023-06-26T13:53:01;4.22;;;1.80;;
11034;SDS011;5571;48.110;-1.706;2023-06-26T13:55:27;7.18;;;1.90;;
11034;SDS011;5571;48.110;-1.706;2023-06-26T13:57:52;2.67;;;1.80;;
11034;SDS011;5571;48.110;-1.706;2023-06-26T14:00:18;5.47;;;2.22;;
11034;SDS011;5571;48.110;-1.706;2023-06-26T14:02:46;4.00;;;1.92;;
11034;SDS011;5571;48.110;-1.706;2023-06-26T14:05:12;5.43;;;1.77;;
11034;SDS011;5571;48.110;-1.706;2023-06-26T14:07:38;3.97;;;2.08;;
11034;SDS011;5571;48.110;-1.706;2023-06-26T14:10:04;5.53;;;2.25;;
11034;SDS011;5571;48.110;-1.706;2023-06-26T14:12:31;7.00;;;2.20;;
11034;SDS011;5571;48.110;-1.706;2023-06-26T14:14:57;5.30;;;2.22;;
11034;SDS011;5571;48.110;-1.706;2023-06-26T14:17:23;6.78;;;2.30;;
11034;SDS011;5571;48.110;-1.706;2023-06-26T14:19:50;6.97;;;1.90;;
11034;SDS011;5571;48.110;-1.706;2023-06-26T14:22:17;4.55;;;2.08;;
11034;SDS011;5571;48.110;-1.706;2023-06-26T14:24:42;6.28;;;1.65;;
11034;SDS011;5571;48.110;-1.706;2023-06-26T14:27:08;3.47;;;1.92;;
11034;SDS011;5571;48.110;-1.706;2023-06-26T14:29:35;4.53;;;2.03;;
11034;SDS011;5571;48.110;-1.706;2023-06-26T14:32:01;7.45;;;2.22;;
11034;SDS011;5571;48.110;-1.706;2023-06-26T14:34:27;6.15;;;2.25;;
11034;SDS011;5571;48.110;-1.706;2023-06-26T14:36:53;5.07;;;2.38;;
11034;SDS011;5571;48.110;-1.706;2023-06-26T14:39:19;6.07;;;1.98;;
11034;SDS011;5571;48.110;-1.706;2023-06-26T14:41:44;8.40;;;2.20;;
11034;SDS011;5571;48.110;-1.706;2023-06-26T14:44:10;5.22;;;2.08;;
11034;SDS011;5571;48.110;-1.706;2023-06-26T14:46:36;5.53;;;2.28;;
11034;SDS011;5571;48.110;-1.706;2023-06-26T14:49:02;8.32;;;2.05;;
11034;SDS011;5571;48.110;-1.706;2023-06-26T14:51:28;9.75;;;2.10;;
11034;SDS011;5571;48.110;-1.706;2023-06-26T14:53:53;8.27;;;2.40;;
11034;SDS011;5571;48.110;-1.706;2023-06-26T14:56:19;9.38;;;2.40;;
11034;SDS011;5571;48.110;-1.706;2023-06-26T14:58:45;8.45;;;2.20;;
11034;SDS011;5571;48.110;-1.706;2023-06-26T15:01:14;4.82;;;2.03;;